Current Conditions
Partly Cloudy
Conditions



Pressure
1007.92 (hPa) - 29.76 (inHG)
Visibility

8.0 (km) - 5.0 (miles)
Temperature
28  °C
Temperature
25  °C
Dewpoint
84  %
 Humidity
Wind Speed
10  km/h
5  kts
6  mph
2.7  m/s
Wind Direction
N
45°
E
90°
135°
S
180°
225°
W
270°
315°
 170°

Due South
Airport Data
WSSL
Seletar Airport
Metar :WSSL 072300Z 17005KT 130V200 8000 FEW016 SCT160 BKN300 28/25 Q1008
Mon 8th August 07:00 am
Raw Metar Info
Raw METAR is the most common format in the world for the transmission of observational weather data. It is highly standardized through the International Civil Aviation Organization (ICAO), which allows it to be understood throughout most of the world.
API Info
Data Provided by
https://www.checkwx.com/weather/WSSL

Aviation Weather providing METAR, TAF, AIRMET, SIGMET and OUTLOOK Weather Reports
© Info
CSS/SVG/PHP scripts were developed by weather34.com for use in the weather34 template © 2015-2022

Guide Info provided by Metar-Wikipedia